Time;durP1;ratioP1;P1;durP2;ratioP2;P2;SDS_P1;SDS_P2;PMS_P1;PMS_P2;Temp;Humidity;BMP_temperature;BMP_pressure;BME280_temperature;BME280_humidity;BME280_pressure;Samples;Min_cycle;Max_cycle;Signal;HPM_P1;HPM_P2
2022/03/04 00:00:50;;;;;;;17.75;10.40;;;;;;;3.08;53.77;101887.25;5009378;28;20038;-65
2022/03/04 00:03:19;;;;;;;16.65;9.95;;;;;;;3.06;54.16;101891.56;5024648;28;20046;-70
2022/03/04 00:05:46;;;;;;;19.05;10.40;;;;;;;3.03;54.36;101887.16;5008320;28;20125;-71
2022/03/04 00:08:14;;;;;;;17.08;10.20;;;;;;;2.99;54.33;101884.50;5008518;28;20121;-70
2022/03/04 00:10:41;;;;;;;17.45;10.60;;;;;;;2.95;54.39;101891.38;5009753;28;20499;-71
2022/03/04 00:13:08;;;;;;;18.08;10.40;;;;;;;2.91;54.78;101889.56;5009537;28;20495;-71
2022/03/04 00:15:35;;;;;;;18.05;10.32;;;;;;;2.88;54.64;101894.72;5009759;28;20118;-72
2022/03/04 00:18:02;;;;;;;19.10;10.40;;;;;;;2.85;54.82;101900.72;5009392;28;20054;-72
2022/03/04 00:20:30;;;;;;;23.08;10.25;;;;;;;2.80;54.90;101900.66;5009752;28;20957;-71
2022/03/04 00:22:58;;;;;;;20.83;10.20;;;;;;;2.80;55.41;101899.78;5008646;28;20054;-72
2022/03/04 00:25:25;;;;;;;19.23;11.02;;;;;;;2.76;55.15;101896.25;5010132;28;20522;-72
2022/03/04 00:27:52;;;;;;;17.45;10.10;;;;;;;2.74;55.36;101902.28;5008584;28;20732;-72
2022/03/04 00:30:19;;;;;;;20.08;10.90;;;;;;;2.70;55.58;101905.66;5007554;28;20046;-73
2022/03/04 00:32:47;;;;;;;17.83;10.05;;;;;;;2.69;55.63;101906.50;5008816;28;20042;-73
2022/03/04 00:35:14;;;;;;;16.55;9.77;;;;;;;2.64;55.38;101911.63;5010036;28;20050;-71
2022/03/04 00:37:41;;;;;;;20.83;10.68;;;;;;;2.60;55.79;101908.09;5009030;28;20187;-72
2022/03/04 00:40:10;;;;;;;19.88;10.20;;;;;;;2.57;56.07;101908.03;5010244;28;20093;-72
2022/03/04 00:42:37;;;;;;;16.40;10.07;;;;;;;2.54;56.13;101912.28;5008634;28;20057;-72
2022/03/04 00:45:05;;;;;;;20.40;10.30;;;;;;;2.50;55.96;101919.16;5010200;28;20041;-74
2022/03/04 00:47:32;;;;;;;19.92;10.60;;;;;;;2.49;56.51;101914.81;5006563;28;20489;-71
2022/03/04 00:50:01;;;;;;;17.70;10.23;;;;;;;2.44;56.52;101917.31;5008404;28;20128;-71
2022/03/04 00:52:29;;;;;;;20.38;10.63;;;;;;;2.42;56.69;101918.13;5009415;28;20754;-69
2022/03/04 00:54:56;;;;;;;18.83;10.07;;;;;;;2.40;56.85;101920.69;5009867;28;20051;-73
2022/03/04 00:57:23;;;;;;;19.80;10.90;;;;;;;2.37;56.84;101914.53;5009435;28;20570;-70
2022/03/04 00:59:50;;;;;;;21.70;11.30;;;;;;;2.33;57.13;101904.09;5008558;28;20046;-72
2022/03/04 01:02:18;;;;;;;20.08;11.18;;;;;;;2.33;57.27;101918.81;5008828;28;20049;-71
2022/03/04 01:04:45;;;;;;;21.38;10.48;;;;;;;2.30;57.42;101910.94;5009150;28;20234;-70
2022/03/04 01:07:12;;;;;;;19.88;10.65;;;;;;;2.28;57.63;101917.84;5008493;28;20537;-70
2022/03/04 01:09:39;;;;;;;19.92;10.75;;;;;;;2.23;57.78;101916.84;5008285;28;20089;-70
2022/03/04 01:12:08;;;;;;;20.45;10.98;;;;;;;2.19;57.75;101915.06;5008232;28;20053;-70
2022/03/04 01:14:35;;;;;;;17.52;10.80;;;;;;;2.16;57.51;101926.25;5008507;28;20039;-73
2022/03/04 01:17:02;;;;;;;19.90;11.48;;;;;;;2.12;58.04;101919.25;5008492;28;20054;-71
2022/03/04 01:19:29;;;;;;;19.38;10.50;;;;;;;2.10;58.12;101924.38;5008890;28;20038;-71
2022/03/04 01:21:56;;;;;;;21.02;11.70;;;;;;;2.10;58.52;101926.13;5007864;28;20053;-72
2022/03/04 01:24:23;;;;;;;18.05;10.65;;;;;;;2.08;58.54;101923.50;5008877;28;20038;-72
2022/03/04 01:26:50;;;;;;;20.50;11.02;;;;;;;2.07;58.53;101921.75;5008777;28;20130;-71
2022/03/04 01:29:18;;;;;;;22.27;11.75;;;;;;;2.06;58.66;101924.28;5008628;28;20055;-69
2022/03/04 01:31:45;;;;;;;19.33;10.68;;;;;;;2.01;58.99;101927.69;5008224;28;20042;-70
2022/03/04 01:34:12;;;;;;;19.88;10.50;;;;;;;1.97;58.94;101922.38;5007154;28;20093;-71
2022/03/04 01:36:39;;;;;;;25.77;12.32;;;;;;;1.94;59.53;101941.38;5008313;28;20050;-71
2022/03/04 01:39:07;;;;;;;18.73;11.38;;;;;;;1.92;59.30;101924.88;5008681;28;20907;-70
2022/03/04 01:41:34;;;;;;;20.65;11.65;;;;;;;1.91;59.29;101915.31;5007975;28;20057;-70
2022/03/04 01:44:01;;;;;;;22.95;13.00;;;;;;;1.88;59.70;101925.63;5008166;28;20054;-71
2022/03/04 01:46:30;;;;;;;24.05;11.77;;;;;;;1.88;59.65;101911.78;5008554;28;20254;-70
2022/03/04 01:48:57;;;;;;;23.02;12.77;;;;;;;1.85;59.66;101912.56;5008891;28;20050;-70
2022/03/04 01:51:25;;;;;;;23.45;13.13;;;;;;;1.83;59.48;101906.47;5008422;28;20046;-70
2022/03/04 01:53:53;;;;;;;22.23;12.05;;;;;;;1.80;60.09;101911.59;5008549;28;20042;-69
2022/03/04 01:56:24;;;;;;;26.05;12.05;;;;;;;1.78;60.36;101916.72;5008636;28;20057;-70
2022/03/04 01:58:51;;;;;;;24.75;12.68;;;;;;;1.75;60.44;101908.88;5006515;28;20049;-70
2022/03/04 02:01:19;;;;;;;22.92;11.75;;;;;;;1.76;60.74;101904.53;5008845;28;20074;-69
2022/03/04 02:03:46;;;;;;;24.48;13.40;;;;;;;1.70;60.54;101900.97;5008292;28;20186;-72
2022/03/04 02:06:14;;;;;;;21.25;12.23;;;;;;;1.65;60.68;101906.91;5007937;28;20043;-71
2022/03/04 02:08:41;;;;;;;23.77;13.02;;;;;;;1.63;61.26;101903.38;5008639;28;20046;-71
2022/03/04 02:11:08;;;;;;;22.10;13.07;;;;;;;1.59;61.30;101904.16;5008244;28;20053;-70
2022/03/04 02:13:37;;;;;;;21.00;11.73;;;;;;;1.59;61.45;101904.16;5002118;28;20065;-70
2022/03/04 02:16:21;;;;;;;24.08;12.45;;;;;;;1.54;61.40;101898.84;5008694;28;20800;-71
2022/03/04 02:18:48;;;;;;;22.75;13.18;;;;;;;1.51;61.65;101906.59;4994603;28;20042;-72
2022/03/04 02:21:20;;;;;;;26.75;13.95;;;;;;;1.48;61.79;101904.75;5008572;28;20093;-66
2022/03/04 02:23:47;;;;;;;22.30;12.27;;;;;;;1.44;62.21;101902.94;5009504;28;20047;-68
2022/03/04 02:26:15;;;;;;;24.15;12.90;;;;;;;1.42;61.86;101902.03;5011387;28;20045;-68
2022/03/04 02:28:42;;;;;;;22.60;13.27;;;;;;;1.39;62.24;101902.84;5010551;28;20046;-68
2022/03/04 02:31:09;;;;;;;23.83;13.00;;;;;;;1.38;62.13;101910.56;5010763;28;20046;-68
2022/03/04 02:33:36;;;;;;;24.15;12.57;;;;;;;1.37;62.12;101909.72;5010190;28;20050;-69
2022/03/04 02:36:03;;;;;;;23.42;12.85;;;;;;;1.34;62.21;101899.22;5011233;28;20550;-67
2022/03/04 02:38:30;;;;;;;23.08;13.00;;;;;;;1.32;62.49;101900.94;5010601;28;20054;-68
2022/03/04 02:40:59;;;;;;;24.02;13.63;;;;;;;1.28;62.29;101900.78;5011528;28;20050;-69
2022/03/04 02:43:26;;;;;;;25.60;13.18;;;;;;;1.24;62.70;101894.66;5011096;28;20046;-70
2022/03/04 02:45:53;;;;;;;24.80;13.90;;;;;;;1.22;62.65;101897.22;5011028;28;20042;-68
2022/03/04 02:48:20;;;;;;;22.67;12.10;;;;;;;1.20;62.78;101893.69;5011040;28;20117;-69
2022/03/04 02:50:47;;;;;;;26.83;13.52;;;;;;;1.19;62.97;101896.25;5010545;28;20044;-68
2022/03/04 02:53:14;;;;;;;22.35;12.55;;;;;;;1.16;62.76;101891.88;5011372;28;20050;-68
2022/03/04 02:55:41;;;;;;;25.15;13.35;;;;;;;1.15;62.78;101894.41;5010628;28;20050;-68
2022/03/04 02:58:08;;;;;;;24.52;14.07;;;;;;;1.12;62.75;101890.03;5010393;28;20046;-70
2022/03/04 03:00:36;;;;;;;25.85;13.40;;;;;;;1.09;62.98;101887.34;5011102;28;20046;-70
2022/03/04 03:03:03;;;;;;;24.05;13.40;;;;;;;1.07;62.86;101889.00;5004871;28;20057;-70
2022/03/04 03:05:31;;;;;;;25.90;13.65;;;;;;;1.07;63.43;101889.91;5011386;28;20039;-70
2022/03/04 03:07:58;;;;;;;23.35;13.18;;;;;;;1.07;63.40;101887.31;5010107;28;20054;-71
2022/03/04 03:10:25;;;;;;;24.40;13.68;;;;;;;1.06;63.22;101885.56;5010246;28;20046;-71
2022/03/04 03:12:52;;;;;;;26.85;14.27;;;;;;;1.08;63.43;101895.97;5011419;28;20142;-71
2022/03/04 03:15:20;;;;;;;25.27;13.88;;;;;;;1.06;63.54;101893.34;5011324;28;20038;-72
2022/03/04 03:17:47;;;;;;;24.40;13.57;;;;;;;1.06;63.49;101905.47;5007710;28;20046;-72
2022/03/04 03:20:14;;;;;;;24.73;13.20;;;;;;;1.06;63.40;101908.06;5010361;28;20549;-71
2022/03/04 03:22:41;;;;;;;25.25;13.80;;;;;;;1.05;63.70;101909.75;5009954;28;20129;-71
2022/03/04 03:25:09;;;;;;;23.85;13.23;;;;;;;1.02;63.76;101908.81;5010167;28;20061;-70
2022/03/04 03:27:36;;;;;;;28.25;13.65;;;;;;;1.02;63.75;101912.28;5009278;28;20094;-70
2022/03/04 03:30:07;;;;;;;24.65;13.20;;;;;;;1.02;63.91;101917.47;5009842;28;20050;-68
2022/03/04 03:32:34;;;;;;;24.85;14.38;;;;;;;1.02;63.77;101914.00;5005830;28;20043;-69
2022/03/04 03:35:03;;;;;;;23.05;12.63;;;;;;;1.00;63.78;101908.78;5010518;28;20933;-68
2022/03/04 03:37:29;;;;;;;23.67;13.13;;;;;;;1.02;64.10;101914.00;5015929;28;20043;-68
2022/03/04 03:39:56;;;;;;;23.33;13.10;;;;;;;1.00;63.87;101907.88;5009991;28;20050;-67
2022/03/04 03:42:24;;;;;;;24.83;12.52;;;;;;;1.01;64.19;101910.53;5010182;28;20053;-68
2022/03/04 03:44:51;;;;;;;26.15;13.32;;;;;;;1.00;64.16;101916.56;5025641;28;20125;-68
2022/03/04 03:47:18;;;;;;;25.63;12.88;;;;;;;0.97;64.08;101915.63;5009988;28;20069;-70
2022/03/04 03:49:45;;;;;;;25.33;13.57;;;;;;;0.95;64.14;101915.56;5010397;28;20413;-68
2022/03/04 03:52:12;;;;;;;29.95;13.32;;;;;;;0.96;64.40;101921.66;5009979;28;20050;-69
2022/03/04 03:54:39;;;;;;;25.63;13.13;;;;;;;0.93;64.32;101917.22;5010170;28;20050;-68
2022/03/04 03:57:06;;;;;;;24.92;13.00;;;;;;;0.91;64.36;101913.72;5009697;28;20545;-69
2022/03/04 03:59:33;;;;;;;29.88;13.95;;;;;;;0.89;64.54;101915.41;5009525;28;20042;-71
2022/03/04 04:02:01;;;;;;;27.00;13.65;;;;;;;0.87;64.61;101922.25;5024670;28;20039;-72
2022/03/04 04:04:34;;;;;;;26.02;13.52;;;;;;;0.84;64.40;101919.56;5010293;28;20061;-72
2022/03/04 04:07:07;;;;;;;26.27;14.07;;;;;;;0.80;64.46;101918.63;5009650;28;20109;-73
2022/03/04 04:09:35;;;;;;;23.17;12.60;;;;;;;0.77;64.88;101924.63;5009707;28;20057;-72
2022/03/04 04:12:03;;;;;;;30.35;13.57;;;;;;;0.73;64.82;101920.16;5010055;28;20372;-72
2022/03/04 04:14:30;;;;;;;26.10;13.63;;;;;;;0.70;65.17;101919.19;5009278;28;20046;-71
2022/03/04 04:16:58;;;;;;;26.25;13.43;;;;;;;0.68;65.53;101921.75;5010160;28;20045;-71
2022/03/04 04:19:25;;;;;;;27.77;14.30;;;;;;;0.67;65.66;101929.50;5009906;28;20051;-71
2022/03/04 04:21:52;;;;;;;27.80;13.45;;;;;;;0.65;65.71;101928.59;5010031;28;20472;-70
2022/03/04 04:24:19;;;;;;;27.65;14.93;;;;;;;0.64;65.72;101932.03;5009137;28;20054;-72
2022/03/04 04:26:47;;;;;;;32.38;15.43;;;;;;;0.62;66.12;101929.34;5009317;28;20042;-71
2022/03/04 04:29:13;;;;;;;26.15;13.98;;;;;;;0.60;66.38;101929.31;5008913;28;20047;-72
2022/03/04 04:31:41;;;;;;;30.02;14.57;;;;;;;0.60;66.21;101931.94;5009074;28;20447;-71
2022/03/04 04:34:09;;;;;;;27.30;14.10;;;;;;;0.57;66.04;101921.44;5008646;28;20050;-71
2022/03/04 04:36:37;;;;;;;26.17;13.93;;;;;;;0.57;66.58;101924.03;5009760;28;20046;-71
2022/03/04 04:39:04;;;;;;;27.90;14.68;;;;;;;0.56;66.85;101924.00;5009294;28;20050;-74
2022/03/04 04:41:31;;;;;;;28.48;15.20;;;;;;;0.56;66.82;101926.59;5009670;28;20046;-74
2022/03/04 04:43:58;;;;;;;27.23;14.02;;;;;;;0.53;67.13;101926.50;5009015;28;20512;-73
2022/03/04 04:46:25;;;;;;;28.95;15.52;;;;;;;0.50;66.98;101927.31;5008495;28;20046;-74
2022/03/04 04:48:53;;;;;;;25.77;14.25;;;;;;;0.47;67.21;101929.81;5009208;28;20511;-71
2022/03/04 04:51:20;;;;;;;28.95;14.70;;;;;;;0.45;67.41;101922.00;5009270;28;20054;-71
2022/03/04 04:53:47;;;;;;;26.38;14.32;;;;;;;0.43;67.74;101923.66;5008774;28;20046;-70
2022/03/04 04:56:14;;;;;;;30.70;15.27;;;;;;;0.44;67.76;101922.81;5009034;28;20046;-67
2022/03/04 04:58:41;;;;;;;31.23;14.38;;;;;;;0.42;68.16;101926.22;5008118;28;20050;-66
2022/03/04 05:01:08;;;;;;;28.52;14.65;;;;;;;0.39;68.07;101932.19;5009063;28;20046;-69
2022/03/04 05:03:35;;;;;;;28.98;15.65;;;;;;;0.37;67.95;101931.28;5009175;28;20042;-70
2022/03/04 05:06:03;;;;;;;29.15;14.38;;;;;;;0.34;68.16;101931.16;5008110;28;20526;-71
2022/03/04 05:08:30;;;;;;;25.77;14.40;;;;;;;0.33;68.29;101931.13;5008726;28;20054;-70
2022/03/04 05:10:58;;;;;;;28.35;14.75;;;;;;;0.31;68.25;101936.25;5008725;28;20133;-68
2022/03/04 05:13:25;;;;;;;29.45;14.98;;;;;;;0.29;68.25;101936.22;5009094;28;20034;-70
2022/03/04 05:15:52;;;;;;;28.48;14.68;;;;;;;0.29;68.41;101935.34;5021203;28;20530;-70
2022/03/04 05:18:19;;;;;;;27.50;14.85;;;;;;;0.26;68.64;101936.13;5008225;28;20053;-70
2022/03/04 05:20:47;;;;;;;30.45;14.88;;;;;;;0.23;69.06;101940.34;5009008;28;20042;-71
2022/03/04 05:23:58;;;;;;;28.42;14.93;;;;;;;0.20;68.88;101940.28;5009863;28;20097;-70
2022/03/04 05:26:02;;;;;;;29.25;15.50;;;;;;;0.18;68.93;101939.34;5008897;28;20104;-67
2022/03/04 05:28:29;;;;;;;28.52;15.10;;;;;;;0.14;69.06;101952.22;5009203;28;20042;-70
2022/03/04 05:30:57;;;;;;;31.30;14.82;;;;;;;0.11;69.31;101959.00;5007879;28;20085;-69
2022/03/04 05:33:24;;;;;;;32.50;16.30;;;;;;;0.11;69.46;101948.66;5009366;28;20043;-69
2022/03/04 05:35:51;;;;;;;28.70;15.65;;;;;;;0.08;69.11;101964.09;5008287;28;20070;-71
2022/03/04 05:38:18;;;;;;;31.00;15.02;;;;;;;0.05;69.13;101966.63;5008161;28;20042;-70
2022/03/04 05:40:45;;;;;;;34.28;15.73;;;;;;;0.02;69.47;101963.91;5009220;28;20093;-74
2022/03/04 05:43:13;;;;;;;31.40;15.65;;;;;;;0.01;70.10;101968.22;5008278;28;20050;-71
2022/03/04 05:45:39;;;;;;;29.27;15.55;;;;;;;0.01;69.97;101969.94;5009195;28;20411;-72
2022/03/04 05:48:07;;;;;;;31.92;15.80;;;;;;;-0.01;70.14;101972.50;5008653;28;20046;-70
2022/03/04 05:50:34;;;;;;;29.42;15.43;;;;;;;-0.03;70.10;101974.16;5000952;28;20047;-70
2022/03/04 05:53:01;;;;;;;29.38;15.20;;;;;;;-0.05;70.18;101975.81;5005257;28;20554;-72
2022/03/04 05:55:28;;;;;;;28.33;14.60;;;;;;;-0.03;71.67;101980.19;5009044;28;20533;-71
2022/03/04 05:57:55;;;;;;;29.20;15.23;;;;;;;0.08;71.97;101977.06;5007973;28;20042;-68
2022/03/04 06:00:23;;;;;;;34.28;16.27;;;;;;;0.21;72.01;101975.72;5004320;28;20039;-69
2022/03/04 06:02:50;;;;;;;38.70;16.95;;;;;;;0.29;71.70;101982.06;5011214;28;20072;-69
2022/03/04 06:05:17;;;;;;;30.00;16.15;;;;;;;0.32;70.92;101983.84;5011443;28;20070;-69
2022/03/04 06:07:44;;;;;;;30.13;16.33;;;;;;;0.32;70.84;101991.63;5008283;28;20066;-70
2022/03/04 06:10:14;;;;;;;34.10;16.77;;;;;;;0.34;71.41;101979.59;5003173;28;20082;-69
2022/03/04 06:12:42;;;;;;;31.85;16.27;;;;;;;0.38;71.51;101990.13;5011640;28;20046;-70
2022/03/04 06:15:09;;;;;;;34.47;16.95;;;;;;;0.39;71.35;101986.69;5012412;28;20622;-69
2022/03/04 06:17:37;;;;;;;32.65;16.95;;;;;;;0.41;71.09;101994.50;5011957;28;20096;-69
2022/03/04 06:20:05;;;;;;;34.55;17.25;;;;;;;0.40;71.74;101984.97;5007223;28;20090;-68
2022/03/04 06:22:33;;;;;;;32.78;16.65;;;;;;;0.45;71.48;101986.84;5009367;28;20042;-69
2022/03/04 06:25:00;;;;;;;34.47;18.23;;;;;;;0.50;70.96;101994.78;5023852;28;20058;-69
2022/03/04 06:27:28;;;;;;;33.22;16.88;;;;;;;0.50;70.30;101992.19;5010737;28;20050;-69
2022/03/04 06:29:55;;;;;;;30.65;16.60;;;;;;;0.49;70.00;101995.59;5003886;28;20645;-70
2022/03/04 06:32:22;;;;;;;33.72;16.73;;;;;;;0.48;70.09;101991.25;5010398;28;20050;-70
2022/03/04 06:34:49;;;;;;;38.50;18.55;;;;;;;0.40;69.34;101993.63;5010974;28;20050;-70
2022/03/04 06:37:17;;;;;;;33.38;16.60;;;;;;;0.31;69.27;101985.53;5000096;28;20045;-68
2022/03/04 06:39:44;;;;;;;34.35;17.33;;;;;;;0.25;69.58;101998.34;4994419;28;20042;-70
2022/03/04 06:42:11;;;;;;;34.53;17.65;;;;;;;0.19;69.58;101990.38;4992945;28;20087;-69
2022/03/04 06:44:38;;;;;;;36.45;18.13;;;;;;;0.19;69.92;101992.97;4991253;28;20089;-68
2022/03/04 06:47:07;;;;;;;38.80;18.80;;;;;;;0.20;69.95;102005.13;4994360;28;20101;-69
2022/03/04 06:49:35;;;;;;;35.15;18.17;;;;;;;0.18;69.81;102005.03;5008838;28;20046;-70
2022/03/04 06:52:03;;;;;;;36.05;17.67;;;;;;;0.19;69.96;102014.59;5005684;28;20043;-69
2022/03/04 06:54:32;;;;;;;34.97;18.35;;;;;;;0.22;69.95;102011.22;4994896;28;20499;-69
2022/03/04 06:57:00;;;;;;;34.30;17.55;;;;;;;0.23;69.79;102006.09;5000304;28;20057;-70
2022/03/04 06:59:28;;;;;;;34.25;18.25;;;;;;;0.29;69.75;102006.25;5006798;28;20557;-68
2022/03/04 07:01:56;;;;;;;34.70;17.58;;;;;;;0.34;69.74;102014.19;5001082;28;20117;-70
2022/03/04 07:04:24;;;;;;;31.38;17.00;;;;;;;0.39;69.57;102017.81;5009042;28;20061;-68
2022/03/04 07:06:51;;;;;;;36.53;17.73;;;;;;;0.44;69.71;102023.16;5009096;28;20470;-69
2022/03/04 07:09:18;;;;;;;33.33;16.83;;;;;;;0.50;69.94;102018.13;5005142;28;20058;-70
2022/03/04 07:11:45;;;;;;;32.03;16.50;;;;;;;0.54;69.42;102025.19;5013938;28;20047;-70
2022/03/04 07:14:12;;;;;;;29.70;16.02;;;;;;;0.58;69.41;102021.84;4994478;28;20047;-69
2022/03/04 07:16:39;;;;;;;36.05;17.38;;;;;;;0.64;69.28;102028.91;5000181;28;20042;-70
2022/03/04 07:19:07;;;;;;;31.83;16.77;;;;;;;0.69;69.51;102023.88;4991247;28;20098;-70
2022/03/04 07:21:34;;;;;;;31.80;16.63;;;;;;;0.75;69.07;102029.25;5002281;28;20050;-69
2022/03/04 07:24:01;;;;;;;35.63;17.90;;;;;;;0.78;68.96;102034.50;5018412;28;20154;-70
2022/03/04 07:26:28;;;;;;;32.92;16.70;;;;;;;0.86;68.88;102027.84;5006677;28;20054;-70
2022/03/04 07:28:55;;;;;;;33.35;17.60;;;;;;;0.94;68.70;102030.66;5005251;28;20046;-70
2022/03/04 07:31:22;;;;;;;34.67;16.83;;;;;;;0.98;68.53;102034.22;5001578;28;20050;-69
2022/03/04 07:33:50;;;;;;;35.15;17.30;;;;;;;1.06;68.45;102032.75;5001636;28;20075;-70
2022/03/04 07:36:17;;;;;;;31.88;17.42;;;;;;;1.11;68.36;102025.06;5005010;28;20042;-70
2022/03/04 07:38:44;;;;;;;33.25;17.17;;;;;;;1.16;68.17;102031.25;4997670;28;20094;-70
2022/03/04 07:41:11;;;;;;;38.95;17.92;;;;;;;1.23;68.25;102022.78;5004609;28;20056;-71
2022/03/04 07:43:38;;;;;;;28.73;16.90;;;;;;;1.30;68.18;102036.81;5004614;28;20047;-70
2022/03/04 07:46:05;;;;;;;36.42;18.65;;;;;;;1.36;67.99;102030.09;4997128;28;20138;-69
2022/03/04 07:48:32;;;;;;;32.83;17.85;;;;;;;1.46;67.80;102032.91;4987559;28;20051;-69
2022/03/04 07:51:00;;;;;;;32.85;16.73;;;;;;;1.55;67.79;102033.16;4986761;28;20471;-71
2022/03/04 07:53:27;;;;;;;32.85;16.77;;;;;;;1.64;67.27;102032.53;4990639;28;20053;-72
2022/03/04 07:55:54;;;;;;;32.65;16.90;;;;;;;1.70;67.20;102036.19;4989493;28;20051;-70
2022/03/04 07:58:22;;;;;;;29.02;16.05;;;;;;;1.76;66.68;102032.84;4996049;28;20042;-69
2022/03/04 08:00:49;;;;;;;31.65;17.33;;;;;;;1.83;66.65;102039.09;5001747;28;20042;-70
2022/03/04 08:03:35;;;;;;;30.55;16.48;;;;;;;1.89;66.56;102038.34;4997614;28;20034;-68
2022/03/04 08:06:03;;;;;;;31.20;14.93;;;;;;;1.92;66.45;102044.53;4991811;28;20057;-70
2022/03/04 08:08:30;;;;;;;32.20;16.73;;;;;;;2.00;66.18;102044.69;4994159;28;20079;-69
2022/03/04 08:10:57;;;;;;;32.25;16.60;;;;;;;2.09;65.95;102046.63;5004721;28;20486;-71
2022/03/04 08:13:24;;;;;;;29.90;16.65;;;;;;;2.16;65.93;102049.44;5004076;28;20494;-70
2022/03/04 08:15:51;;;;;;;27.00;15.13;;;;;;;2.23;65.73;102047.88;4992528;28;20046;-70
2022/03/04 08:18:20;;;;;;;31.75;16.80;;;;;;;2.32;65.27;102049.78;4991882;28;20157;-69
2022/03/04 08:20:47;;;;;;;31.35;16.13;;;;;;;2.42;65.05;102053.50;5003759;28;20349;-70
2022/03/04 08:23:14;;;;;;;30.70;15.95;;;;;;;2.48;65.16;102051.91;4991256;28;20046;-70
2022/03/04 08:25:41;;;;;;;30.05;15.65;;;;;;;2.59;64.83;102052.13;5001303;28;20090;-71
2022/03/04 08:28:08;;;;;;;28.40;15.65;;;;;;;2.73;64.78;102065.47;5003294;28;20057;-70
2022/03/04 08:30:36;;;;;;;32.45;17.27;;;;;;;2.87;64.45;102067.50;4990054;28;20876;-72
2022/03/04 08:33:04;;;;;;;30.95;16.58;;;;;;;3.00;64.22;102073.81;4987259;28;20948;-70
2022/03/04 08:35:31;;;;;;;25.90;15.05;;;;;;;3.10;63.63;102070.56;4995532;28;20049;-70
2022/03/04 08:38:00;;;;;;;28.80;15.55;;;;;;;3.18;63.42;102076.81;4987944;28;20038;-71
2022/03/04 08:40:27;;;;;;;28.35;15.68;;;;;;;3.26;63.30;102080.44;4996477;28;20046;-69
2022/03/04 08:42:54;;;;;;;29.05;16.55;;;;;;;3.35;62.57;102071.94;4994809;28;20049;-70
2022/03/04 08:45:22;;;;;;;27.75;15.57;;;;;;;3.41;62.29;102068.56;4987231;28;20881;-70
2022/03/04 08:47:49;;;;;;;27.05;16.27;;;;;;;3.48;62.42;102061.75;4989630;28;20046;-70
2022/03/04 08:50:17;;;;;;;31.48;15.98;;;;;;;3.60;62.19;102059.38;4997380;28;20136;-69
2022/03/04 08:52:44;;;;;;;28.98;17.20;;;;;;;3.71;62.17;102052.59;4996840;28;20141;-70
2022/03/04 08:55:14;;;;;;;28.60;15.57;;;;;;;3.87;61.88;102055.47;5006730;28;20050;-69
2022/03/04 08:57:45;;;;;;;42.92;17.02;;;;;;;4.03;61.37;102060.09;4996676;28;20048;-70
2022/03/04 09:00:16;;;;;;;30.52;15.93;;;;;;;4.19;60.76;102065.56;4997345;28;20046;-70
2022/03/04 09:02:45;;;;;;;26.15;14.93;;;;;;;4.33;59.88;102065.78;5001243;28;20154;-69
2022/03/04 09:05:13;;;;;;;29.85;15.50;;;;;;;4.45;59.64;102059.84;4985838;28;20047;-70
2022/03/04 09:07:40;;;;;;;25.13;13.95;;;;;;;4.59;58.60;102070.50;4994114;28;20054;-70
2022/03/04 09:10:08;;;;;;;26.27;13.98;;;;;;;4.67;57.83;102074.13;5003958;28;20160;-70
2022/03/04 09:12:35;;;;;;;26.60;13.70;;;;;;;4.77;58.13;102065.56;5000041;28;20069;-73
2022/03/04 09:15:07;;;;;;;25.67;14.25;;;;;;;4.91;57.81;102070.94;4997133;28;20082;-71
2022/03/04 09:17:36;;;;;;;28.58;14.07;;;;;;;5.05;57.56;102071.13;4995923;28;20050;-70
2022/03/04 09:20:04;;;;;;;25.20;13.80;;;;;;;5.21;57.09;102073.91;4986416;28;20053;-70
2022/03/04 09:22:31;;;;;;;28.83;14.35;;;;;;;5.33;56.45;102081.03;4997688;28;20050;-71
2022/03/04 09:24:59;;;;;;;28.70;14.10;;;;;;;5.41;56.67;102069.78;4995934;28;20563;-68
2022/03/04 09:27:26;;;;;;;22.73;12.98;;;;;;;5.52;55.97;102072.53;4998322;28;20055;-69
2022/03/04 09:29:54;;;;;;;28.65;13.52;;;;;;;5.62;55.01;102075.25;4991083;28;20486;-69
2022/03/04 09:32:21;;;;;;;25.98;13.77;;;;;;;5.71;54.89;102077.94;5001734;28;20174;-72
2022/03/04 09:34:50;;;;;;;22.73;12.82;;;;;;;5.82;54.31;102070.19;4995175;28;20039;-71
2022/03/04 09:37:17;;;;;;;24.60;13.23;;;;;;;5.91;52.57;102065.91;4998398;28;20616;-71
2022/03/04 09:39:44;;;;;;;22.63;13.02;;;;;;;5.99;52.94;102066.03;4998710;28;20538;-70
2022/03/04 09:42:13;;;;;;;61.08;33.33;;;;;;;6.12;52.65;102068.72;5006242;28;20038;-71
2022/03/04 09:44:40;;;;;;;37.53;23.02;;;;;;;6.26;53.05;102066.22;4989184;28;20049;-70
2022/03/04 09:47:10;;;;;;;29.67;17.50;;;;;;;6.39;53.09;102061.94;4992849;28;20126;-71
2022/03/04 09:49:38;;;;;;;32.15;19.73;;;;;;;6.55;52.55;102058.53;4996399;28;20148;-71
2022/03/04 09:52:06;;;;;;;33.10;20.63;;;;;;;6.68;50.91;102064.72;5005253;28;20138;-68
2022/03/04 09:54:34;;;;;;;24.45;14.70;;;;;;;6.75;50.96;102066.53;4995587;28;20082;-71
2022/03/04 09:57:01;;;;;;;28.48;14.63;;;;;;;6.86;51.39;102061.34;4999830;28;20050;-71
2022/03/04 09:59:29;;;;;;;26.10;14.55;;;;;;;6.98;50.21;102058.78;4997612;28;20042;-71
2022/03/04 10:01:58;;;;;;;25.77;13.15;;;;;;;7.02;49.61;102070.13;4998568;28;20038;-71
2022/03/04 10:04:28;;;;;;;25.05;14.65;;;;;;;7.06;50.37;102066.69;5001991;28;20510;-72
2022/03/04 10:06:55;;;;;;;27.15;16.15;;;;;;;7.15;49.64;102060.56;4993955;28;20034;-71
2022/03/04 10:09:45;;;;;;;31.73;16.50;;;;;;;7.25;50.01;102062.34;5003393;28;20069;-70
2022/03/04 10:12:15;;;;;;;25.13;14.57;;;;;;;7.33;49.95;102048.38;5002110;28;20086;-70
2022/03/04 10:15:06;;;;;;;23.92;13.88;;;;;;;7.48;48.61;102052.81;4989657;28;20042;-71
2022/03/04 10:17:37;;;;;;;22.40;14.02;;;;;;;7.55;49.19;102051.94;4992182;28;20039;-70
2022/03/04 10:20:12;;;;;;;25.85;15.02;;;;;;;7.66;49.46;102054.56;4996697;28;20097;-71
2022/03/04 10:22:45;;;;;;;32.60;15.52;;;;;;;7.79;49.32;102056.34;4999632;28;20062;-70
2022/03/04 10:25:24;;;;;;;29.17;16.58;;;;;;;7.91;48.73;102053.72;4997127;28;20046;-71
2022/03/04 10:27:52;;;;;;;26.83;15.18;;;;;;;8.03;48.76;102046.72;4994756;28;20039;-70
2022/03/04 10:30:32;;;;;;;26.13;15.07;;;;;;;8.07;46.69;102049.34;5000721;28;20531;-72
2022/03/04 10:33:07;;;;;;;38.70;14.90;;;;;;;8.07;46.83;102043.19;5005509;28;20084;-71
2022/03/04 10:35:38;;;;;;;26.35;15.13;;;;;;;8.09;47.52;102046.72;4999301;28;20098;-72
2022/03/04 10:38:16;;;;;;;26.55;14.90;;;;;;;8.14;47.49;102047.56;5000306;28;20081;-72
2022/03/04 10:40:43;;;;;;;26.77;15.30;;;;;;;8.22;47.79;102053.72;5005650;28;21015;-72
2022/03/04 10:43:12;;;;;;;29.38;15.27;;;;;;;8.32;47.27;102051.94;4995700;28;20070;-71
2022/03/04 10:45:43;;;;;;;28.55;15.02;;;;;;;8.44;47.43;102037.03;5003643;28;20098;-72
2022/03/04 10:48:13;;;;;;;22.90;14.75;;;;;;;8.52;46.85;102036.16;5006637;28;20546;-69
2022/03/04 10:50:49;;;;;;;23.65;14.68;;;;;;;8.62;46.62;102034.38;5002388;28;20054;-71
2022/03/04 10:53:18;;;;;;;32.08;14.48;;;;;;;8.68;46.17;102036.09;4995897;28;20114;-71
2022/03/04 10:55:54;;;;;;;26.83;14.63;;;;;;;8.69;45.65;102041.38;4995308;28;20043;-72
2022/03/04 10:58:34;;;;;;;25.23;14.50;;;;;;;8.70;45.79;102034.34;4996597;28;20150;-71
2022/03/04 11:01:11;;;;;;;26.80;15.15;;;;;;;8.73;45.61;102036.09;4997368;28;20077;-71
2022/03/04 11:03:41;;;;;;;33.28;15.20;;;;;;;8.75;46.20;102034.34;5002026;28;20057;-70
2022/03/04 11:06:13;;;;;;;29.65;14.90;;;;;;;8.89;46.50;102032.53;5020015;28;20046;-70
2022/03/04 11:08:42;;;;;;;25.33;14.80;;;;;;;9.03;45.77;102043.00;5006293;28;20054;-70
2022/03/04 11:11:11;;;;;;;23.35;14.43;;;;;;;9.13;45.11;102038.56;4992618;28;20050;-70
2022/03/04 11:13:38;;;;;;;26.95;15.52;;;;;;;9.23;45.21;102040.25;5000351;28;20049;-71
2022/03/04 11:16:08;;;;;;;27.52;14.98;;;;;;;9.30;44.71;102031.47;5009433;28;20899;-70
2022/03/04 11:18:36;;;;;;;27.13;15.70;;;;;;;9.31;44.21;102027.91;5007528;28;20153;-72
2022/03/04 11:21:04;;;;;;;25.10;14.77;;;;;;;9.26;44.04;102023.59;5006604;28;20050;-70